sensor_id;sensor_type;location;lat;lon;timestamp;temperature;humidity
5150;DHT22;2593;52.466;13.436;2023-09-08T00:02:03;19.30;1.00
5150;DHT22;2593;52.466;13.436;2023-09-08T00:04:29;19.30;1.00
5150;DHT22;2593;52.466;13.436;2023-09-08T00:06:54;19.20;1.00
5150;DHT22;2593;52.466;13.436;2023-09-08T00:09:20;19.20;1.00
5150;DHT22;2593;52.466;13.436;2023-09-08T00:11:45;19.10;1.00
5150;DHT22;2593;52.466;13.436;2023-09-08T00:14:11;19.10;1.00
5150;DHT22;2593;52.466;13.436;2023-09-08T00:16:36;19.00;1.00
5150;DHT22;2593;52.466;13.436;2023-09-08T00:19:04;18.90;1.00
5150;DHT22;2593;52.466;13.436;2023-09-08T00:21:30;18.90;1.00
5150;DHT22;2593;52.466;13.436;2023-09-08T00:23:55;18.80;1.00
5150;DHT22;2593;52.466;13.436;2023-09-08T00:26:21;18.70;1.00
5150;DHT22;2593;52.466;13.436;2023-09-08T00:28:47;18.70;1.00
5150;DHT22;2593;52.466;13.436;2023-09-08T00:31:13;18.70;1.00
5150;DHT22;2593;52.466;13.436;2023-09-08T00:33:38;18.70;1.00
5150;DHT22;2593;52.466;13.436;2023-09-08T00:36:05;18.70;1.00
5150;DHT22;2593;52.466;13.436;2023-09-08T00:38:30;18.70;1.00
5150;DHT22;2593;52.466;13.436;2023-09-08T00:40:56;18.70;1.00
5150;DHT22;2593;52.466;13.436;2023-09-08T00:43:21;19.00;1.00
5150;DHT22;2593;52.466;13.436;2023-09-08T00:45:47;19.10;1.00
5150;DHT22;2593;52.466;13.436;2023-09-08T00:48:13;19.10;1.00
5150;DHT22;2593;52.466;13.436;2023-09-08T00:50:38;19.00;1.00
5150;DHT22;2593;52.466;13.436;2023-09-08T00:53:07;19.00;1.00
5150;DHT22;2593;52.466;13.436;2023-09-08T00:55:33;19.00;1.00
5150;DHT22;2593;52.466;13.436;2023-09-08T00:57:59;18.90;1.00
5150;DHT22;2593;52.466;13.436;2023-09-08T01:00:25;18.70;1.00
5150;DHT22;2593;52.466;13.436;2023-09-08T01:02:50;18.70;1.00
5150;DHT22;2593;52.466;13.436;2023-09-08T01:05:16;18.60;1.00
5150;DHT22;2593;52.466;13.436;2023-09-08T01:07:42;18.60;1.00
5150;DHT22;2593;52.466;13.436;2023-09-08T01:10:07;18.50;1.00
5150;DHT22;2593;52.466;13.436;2023-09-08T01:12:33;18.40;1.00
5150;DHT22;2593;52.466;13.436;2023-09-08T01:15:03;18.50;1.00
5150;DHT22;2593;52.466;13.436;2023-09-08T01:17:30;18.40;1.00
5150;DHT22;2593;52.466;13.436;2023-09-08T01:19:55;18.50;1.00
5150;DHT22;2593;52.466;13.436;2023-09-08T01:22:22;18.40;1.00
5150;DHT22;2593;52.466;13.436;2023-09-08T01:25:02;18.40;1.00
5150;DHT22;2593;52.466;13.436;2023-09-08T01:27:29;18.30;1.00
5150;DHT22;2593;52.466;13.436;2023-09-08T01:29:57;18.20;1.00
5150;DHT22;2593;52.466;13.436;2023-09-08T01:32:23;18.10;1.00
5150;DHT22;2593;52.466;13.436;2023-09-08T01:34:50;18.10;1.00
5150;DHT22;2593;52.466;13.436;2023-09-08T01:37:15;18.10;1.00
5150;DHT22;2593;52.466;13.436;2023-09-08T01:39:41;18.10;1.00
5150;DHT22;2593;52.466;13.436;2023-09-08T01:42:06;18.00;1.00
5150;DHT22;2593;52.466;13.436;2023-09-08T01:44:32;18.10;1.00
5150;DHT22;2593;52.466;13.436;2023-09-08T01:46:57;18.10;1.00
5150;DHT22;2593;52.466;13.436;2023-09-08T01:49:23;18.10;1.00
5150;DHT22;2593;52.466;13.436;2023-09-08T01:51:49;18.10;1.00
5150;DHT22;2593;52.466;13.436;2023-09-08T01:54:15;18.10;1.00
5150;DHT22;2593;52.466;13.436;2023-09-08T01:56:41;18.00;1.00
5150;DHT22;2593;52.466;13.436;2023-09-08T01:59:06;18.10;1.00
5150;DHT22;2593;52.466;13.436;2023-09-08T02:01:32;18.10;1.00
5150;DHT22;2593;52.466;13.436;2023-09-08T02:03:57;18.10;1.00
5150;DHT22;2593;52.466;13.436;2023-09-08T02:06:23;18.10;1.00
5150;DHT22;2593;52.466;13.436;2023-09-08T02:08:48;18.10;1.00
5150;DHT22;2593;52.466;13.436;2023-09-08T02:11:14;18.00;1.00
5150;DHT22;2593;52.466;13.436;2023-09-08T02:13:41;18.10;1.00
5150;DHT22;2593;52.466;13.436;2023-09-08T02:16:07;18.00;1.00
5150;DHT22;2593;52.466;13.436;2023-09-08T02:18:33;18.10;1.00
5150;DHT22;2593;52.466;13.436;2023-09-08T02:20:58;18.00;1.00
5150;DHT22;2593;52.466;13.436;2023-09-08T02:23:24;18.00;1.00
5150;DHT22;2593;52.466;13.436;2023-09-08T02:25:49;18.00;1.00
5150;DHT22;2593;52.466;13.436;2023-09-08T02:28:15;17.90;1.00
5150;DHT22;2593;52.466;13.436;2023-09-08T02:30:40;17.90;1.00
5150;DHT22;2593;52.466;13.436;2023-09-08T02:33:06;17.90;1.00
5150;DHT22;2593;52.466;13.436;2023-09-08T02:35:35;17.90;1.00
5150;DHT22;2593;52.466;13.436;2023-09-08T02:38:00;17.90;1.00
5150;DHT22;2593;52.466;13.436;2023-09-08T02:40:26;17.80;1.00
5150;DHT22;2593;52.466;13.436;2023-09-08T02:42:51;17.80;1.00
5150;DHT22;2593;52.466;13.436;2023-09-08T02:45:17;17.80;1.00
5150;DHT22;2593;52.466;13.436;2023-09-08T02:47:42;17.80;1.00
5150;DHT22;2593;52.466;13.436;2023-09-08T02:50:08;17.80;1.00
5150;DHT22;2593;52.466;13.436;2023-09-08T02:52:34;17.70;1.00
5150;DHT22;2593;52.466;13.436;2023-09-08T02:54:59;17.70;1.00
5150;DHT22;2593;52.466;13.436;2023-09-08T02:57:25;17.70;1.00
5150;DHT22;2593;52.466;13.436;2023-09-08T02:59:50;17.70;1.00
5150;DHT22;2593;52.466;13.436;2023-09-08T03:02:22;17.70;1.00
5150;DHT22;2593;52.466;13.436;2023-09-08T03:04:47;17.70;1.00
5150;DHT22;2593;52.466;13.436;2023-09-08T03:07:13;17.60;1.00
5150;DHT22;2593;52.466;13.436;2023-09-08T03:09:38;17.50;1.00
5150;DHT22;2593;52.466;13.436;2023-09-08T03:12:04;17.60;1.00
5150;DHT22;2593;52.466;13.436;2023-09-08T03:14:29;17.50;1.00
5150;DHT22;2593;52.466;13.436;2023-09-08T03:16:55;17.50;1.00
5150;DHT22;2593;52.466;13.436;2023-09-08T03:19:20;17.50;1.00
5150;DHT22;2593;52.466;13.436;2023-09-08T03:21:46;17.50;1.00
5150;DHT22;2593;52.466;13.436;2023-09-08T03:24:11;17.40;1.00
5150;DHT22;2593;52.466;13.436;2023-09-08T03:26:37;17.40;1.00
5150;DHT22;2593;52.466;13.436;2023-09-08T03:29:02;17.40;1.00
5150;DHT22;2593;52.466;13.436;2023-09-08T03:31:28;17.40;1.00
5150;DHT22;2593;52.466;13.436;2023-09-08T03:33:54;17.40;1.00
5150;DHT22;2593;52.466;13.436;2023-09-08T03:36:19;17.40;1.00
5150;DHT22;2593;52.466;13.436;2023-09-08T03:38:45;17.40;1.00
5150;DHT22;2593;52.466;13.436;2023-09-08T03:41:10;17.40;1.00
5150;DHT22;2593;52.466;13.436;2023-09-08T03:43:36;17.50;1.00
5150;DHT22;2593;52.466;13.436;2023-09-08T03:46:01;17.50;1.00
5150;DHT22;2593;52.466;13.436;2023-09-08T03:48:27;17.40;1.00
5150;DHT22;2593;52.466;13.436;2023-09-08T03:50:52;17.40;1.00
5150;DHT22;2593;52.466;13.436;2023-09-08T03:53:18;17.30;1.00
5150;DHT22;2593;52.466;13.436;2023-09-08T03:55:43;17.30;1.00
5150;DHT22;2593;52.466;13.436;2023-09-08T03:58:09;17.30;1.00
5150;DHT22;2593;52.466;13.436;2023-09-08T04:00:35;17.30;1.00
5150;DHT22;2593;52.466;13.436;2023-09-08T04:03:00;17.30;1.00
5150;DHT22;2593;52.466;13.436;2023-09-08T04:05:26;17.40;1.00
5150;DHT22;2593;52.466;13.436;2023-09-08T04:07:52;17.40;1.00
5150;DHT22;2593;52.466;13.436;2023-09-08T04:10:18;17.30;1.00
5150;DHT22;2593;52.466;13.436;2023-09-08T04:12:44;17.60;1.00
5150;DHT22;2593;52.466;13.436;2023-09-08T04:15:10;17.50;1.00
5150;DHT22;2593;52.466;13.436;2023-09-08T04:17:35;17.40;1.00
5150;DHT22;2593;52.466;13.436;2023-09-08T04:20:02;17.30;1.00
5150;DHT22;2593;52.466;13.436;2023-09-08T04:22:30;17.30;1.00
5150;DHT22;2593;52.466;13.436;2023-09-08T04:24:55;17.20;1.00
5150;DHT22;2593;52.466;13.436;2023-09-08T04:27:22;17.20;1.00
5150;DHT22;2593;52.466;13.436;2023-09-08T04:29:48;17.10;1.00
5150;DHT22;2593;52.466;13.436;2023-09-08T04:32:13;17.10;1.00
5150;DHT22;2593;52.466;13.436;2023-09-08T04:34:40;17.00;1.00
5150;DHT22;2593;52.466;13.436;2023-09-08T04:37:06;17.00;1.00
5150;DHT22;2593;52.466;13.436;2023-09-08T04:39:32;16.90;1.00
5150;DHT22;2593;52.466;13.436;2023-09-08T04:41:58;16.90;1.00
5150;DHT22;2593;52.466;13.436;2023-09-08T04:44:23;16.90;1.00
5150;DHT22;2593;52.466;13.436;2023-09-08T04:46:49;16.90;1.00
5150;DHT22;2593;52.466;13.436;2023-09-08T04:49:14;16.90;1.00
5150;DHT22;2593;52.466;13.436;2023-09-08T04:51:40;16.80;1.00
5150;DHT22;2593;52.466;13.436;2023-09-08T04:54:05;16.80;1.00
5150;DHT22;2593;52.466;13.436;2023-09-08T04:56:31;16.80;1.00
5150;DHT22;2593;52.466;13.436;2023-09-08T04:58:56;16.80;1.00
5150;DHT22;2593;52.466;13.436;2023-09-08T05:01:23;16.70;1.00
5150;DHT22;2593;52.466;13.436;2023-09-08T05:03:49;16.80;1.00
5150;DHT22;2593;52.466;13.436;2023-09-08T05:06:14;16.70;1.00
5150;DHT22;2593;52.466;13.436;2023-09-08T05:08:40;16.70;1.00
5150;DHT22;2593;52.466;13.436;2023-09-08T05:11:05;16.70;1.00
5150;DHT22;2593;52.466;13.436;2023-09-08T05:13:31;16.70;1.00
5150;DHT22;2593;52.466;13.436;2023-09-08T05:15:56;16.80;1.00
5150;DHT22;2593;52.466;13.436;2023-09-08T05:18:26;16.70;1.00
5150;DHT22;2593;52.466;13.436;2023-09-08T05:20:52;16.70;1.00
5150;DHT22;2593;52.466;13.436;2023-09-08T05:23:17;16.60;1.00
5150;DHT22;2593;52.466;13.436;2023-09-08T05:25:43;16.60;1.00
5150;DHT22;2593;52.466;13.436;2023-09-08T05:28:09;16.70;1.00
5150;DHT22;2593;52.466;13.436;2023-09-08T05:30:35;16.80;1.00
5150;DHT22;2593;52.466;13.436;2023-09-08T05:33:01;16.80;1.00
5150;DHT22;2593;52.466;13.436;2023-09-08T05:35:26;16.90;1.00
5150;DHT22;2593;52.466;13.436;2023-09-08T05:37:52;16.90;1.00
5150;DHT22;2593;52.466;13.436;2023-09-08T05:40:17;17.10;1.00
5150;DHT22;2593;52.466;13.436;2023-09-08T05:42:44;17.00;1.00
5150;DHT22;2593;52.466;13.436;2023-09-08T05:45:09;17.00;1.00
5150;DHT22;2593;52.466;13.436;2023-09-08T05:47:35;17.10;1.00
5150;DHT22;2593;52.466;13.436;2023-09-08T05:50:01;17.10;1.00
5150;DHT22;2593;52.466;13.436;2023-09-08T05:52:27;17.20;1.00
5150;DHT22;2593;52.466;13.436;2023-09-08T05:54:53;17.20;1.00
5150;DHT22;2593;52.466;13.436;2023-09-08T05:57:19;17.30;1.00
5150;DHT22;2593;52.466;13.436;2023-09-08T05:59:44;17.50;1.00
5150;DHT22;2593;52.466;13.436;2023-09-08T06:02:10;17.50;1.00
5150;DHT22;2593;52.466;13.436;2023-09-08T06:04:35;17.50;1.00
5150;DHT22;2593;52.466;13.436;2023-09-08T06:07:01;17.40;1.00
5150;DHT22;2593;52.466;13.436;2023-09-08T06:09:27;17.50;1.00
5150;DHT22;2593;52.466;13.436;2023-09-08T06:11:52;17.70;1.00
5150;DHT22;2593;52.466;13.436;2023-09-08T06:14:18;17.70;1.00
5150;DHT22;2593;52.466;13.436;2023-09-08T06:16:43;17.80;1.00
5150;DHT22;2593;52.466;13.436;2023-09-08T06:19:09;17.80;1.00
5150;DHT22;2593;52.466;13.436;2023-09-08T06:21:35;17.90;1.00
5150;DHT22;2593;52.466;13.436;2023-09-08T06:24:00;18.00;1.00
5150;DHT22;2593;52.466;13.436;2023-09-08T06:26:26;18.10;1.00
5150;DHT22;2593;52.466;13.436;2023-09-08T06:28:51;18.20;1.00
5150;DHT22;2593;52.466;13.436;2023-09-08T06:31:16;18.20;1.00
5150;DHT22;2593;52.466;13.436;2023-09-08T06:33:42;18.30;1.00
5150;DHT22;2593;52.466;13.436;2023-09-08T06:36:07;18.40;1.00
5150;DHT22;2593;52.466;13.436;2023-09-08T06:38:33;18.50;1.00
5150;DHT22;2593;52.466;13.436;2023-09-08T06:40:58;18.70;1.00
5150;DHT22;2593;52.466;13.436;2023-09-08T06:43:24;18.80;1.00
5150;DHT22;2593;52.466;13.436;2023-09-08T06:45:49;18.80;1.00
5150;DHT22;2593;52.466;13.436;2023-09-08T06:48:15;19.10;1.00
5150;DHT22;2593;52.466;13.436;2023-09-08T06:50:41;19.40;1.00
5150;DHT22;2593;52.466;13.436;2023-09-08T06:53:06;19.80;1.00
5150;DHT22;2593;52.466;13.436;2023-09-08T06:55:32;20.10;1.00
5150;DHT22;2593;52.466;13.436;2023-09-08T06:57:58;20.20;1.00
5150;DHT22;2593;52.466;13.436;2023-09-08T07:00:23;20.50;1.00
5150;DHT22;2593;52.466;13.436;2023-09-08T07:02:49;20.70;1.00
5150;DHT22;2593;52.466;13.436;2023-09-08T07:05:15;21.10;1.00
5150;DHT22;2593;52.466;13.436;2023-09-08T07:07:40;21.20;1.00
5150;DHT22;2593;52.466;13.436;2023-09-08T07:10:06;21.40;1.00
5150;DHT22;2593;52.466;13.436;2023-09-08T07:12:32;21.60;1.00
5150;DHT22;2593;52.466;13.436;2023-09-08T07:14:57;22.00;1.00
5150;DHT22;2593;52.466;13.436;2023-09-08T07:17:25;22.10;1.00
5150;DHT22;2593;52.466;13.436;2023-09-08T07:19:50;22.30;1.00
5150;DHT22;2593;52.466;13.436;2023-09-08T07:22:16;22.50;1.00
5150;DHT22;2593;52.466;13.436;2023-09-08T07:24:42;22.80;1.00
5150;DHT22;2593;52.466;13.436;2023-09-08T07:27:07;22.70;1.00
5150;DHT22;2593;52.466;13.436;2023-09-08T07:29:33;23.10;1.00
5150;DHT22;2593;52.466;13.436;2023-09-08T07:31:59;23.20;1.00
5150;DHT22;2593;52.466;13.436;2023-09-08T07:34:24;23.20;1.00
5150;DHT22;2593;52.466;13.436;2023-09-08T07:36:50;23.50;1.00
5150;DHT22;2593;52.466;13.436;2023-09-08T07:39:15;24.00;1.00
5150;DHT22;2593;52.466;13.436;2023-09-08T07:41:41;24.50;1.00
5150;DHT22;2593;52.466;13.436;2023-09-08T07:44:07;24.90;1.00
5150;DHT22;2593;52.466;13.436;2023-09-08T07:46:32;25.60;1.00
5150;DHT22;2593;52.466;13.436;2023-09-08T07:48:58;26.50;1.00
5150;DHT22;2593;52.466;13.436;2023-09-08T07:51:24;27.70;1.00
5150;DHT22;2593;52.466;13.436;2023-09-08T07:53:50;27.80;99.90
5150;DHT22;2593;52.466;13.436;2023-09-08T07:56:15;27.20;99.90
5150;DHT22;2593;52.466;13.436;2023-09-08T07:58:41;27.20;99.90
5150;DHT22;2593;52.466;13.436;2023-09-08T08:01:06;27.60;99.90
5150;DHT22;2593;52.466;13.436;2023-09-08T08:03:32;28.70;99.90
5150;DHT22;2593;52.466;13.436;2023-09-08T08:06:00;29.10;99.90
5150;DHT22;2593;52.466;13.436;2023-09-08T08:08:25;29.30;99.90
5150;DHT22;2593;52.466;13.436;2023-09-08T08:10:51;30.50;99.90
5150;DHT22;2593;52.466;13.436;2023-09-08T08:13:16;31.20;99.90
5150;DHT22;2593;52.466;13.436;2023-09-08T08:15:42;30.90;99.90
5150;DHT22;2593;52.466;13.436;2023-09-08T08:18:08;30.50;99.90
5150;DHT22;2593;52.466;13.436;2023-09-08T08:20:37;31.80;99.90
5150;DHT22;2593;52.466;13.436;2023-09-08T08:23:03;32.30;99.90
5150;DHT22;2593;52.466;13.436;2023-09-08T08:25:29;32.00;99.90
5150;DHT22;2593;52.466;13.436;2023-09-08T08:27:54;33.50;99.90
5150;DHT22;2593;52.466;13.436;2023-09-08T08:30:22;35.20;99.90
5150;DHT22;2593;52.466;13.436;2023-09-08T08:32:47;35.40;99.90
5150;DHT22;2593;52.466;13.436;2023-09-08T08:35:13;35.20;99.90
5150;DHT22;2593;52.466;13.436;2023-09-08T08:37:39;35.10;99.90
5150;DHT22;2593;52.466;13.436;2023-09-08T08:40:05;34.60;99.90
5150;DHT22;2593;52.466;13.436;2023-09-08T08:42:32;33.20;99.90
5150;DHT22;2593;52.466;13.436;2023-09-08T08:44:58;33.10;99.90
5150;DHT22;2593;52.466;13.436;2023-09-08T08:47:24;33.40;99.90
5150;DHT22;2593;52.466;13.436;2023-09-08T08:49:50;33.80;99.90
5150;DHT22;2593;52.466;13.436;2023-09-08T08:52:15;34.60;99.90
5150;DHT22;2593;52.466;13.436;2023-09-08T08:54:42;33.90;99.90
5150;DHT22;2593;52.466;13.436;2023-09-08T08:57:08;33.20;99.90
5150;DHT22;2593;52.466;13.436;2023-09-08T08:59:34;34.00;99.90
5150;DHT22;2593;52.466;13.436;2023-09-08T09:01:59;34.90;99.90
5150;DHT22;2593;52.466;13.436;2023-09-08T09:04:26;34.60;99.90
5150;DHT22;2593;52.466;13.436;2023-09-08T09:06:54;35.40;99.90
5150;DHT22;2593;52.466;13.436;2023-09-08T09:09:22;35.50;99.90
5150;DHT22;2593;52.466;13.436;2023-09-08T09:11:49;34.80;99.90
5150;DHT22;2593;52.466;13.436;2023-09-08T09:14:14;33.70;99.90
5150;DHT22;2593;52.466;13.436;2023-09-08T09:16:40;33.00;99.90
5150;DHT22;2593;52.466;13.436;2023-09-08T09:19:06;32.90;99.90
5150;DHT22;2593;52.466;13.436;2023-09-08T09:21:42;32.10;99.90
5150;DHT22;2593;52.466;13.436;2023-09-08T09:24:13;32.10;99.90
5150;DHT22;2593;52.466;13.436;2023-09-08T09:26:38;33.70;99.90
5150;DHT22;2593;52.466;13.436;2023-09-08T09:29:11;34.50;99.90
5150;DHT22;2593;52.466;13.436;2023-09-08T09:31:36;35.50;99.90
5150;DHT22;2593;52.466;13.436;2023-09-08T09:34:05;35.90;99.90
5150;DHT22;2593;52.466;13.436;2023-09-08T09:36:31;34.30;99.90
5150;DHT22;2593;52.466;13.436;2023-09-08T09:39:00;34.90;99.90
5150;DHT22;2593;52.466;13.436;2023-09-08T09:41:29;34.70;99.90
5150;DHT22;2593;52.466;13.436;2023-09-08T09:43:58;35.70;99.90
5150;DHT22;2593;52.466;13.436;2023-09-08T09:46:27;36.60;99.90
5150;DHT22;2593;52.466;13.436;2023-09-08T09:48:55;35.50;99.90
5150;DHT22;2593;52.466;13.436;2023-09-08T09:51:23;35.80;99.90
5150;DHT22;2593;52.466;13.436;2023-09-08T09:53:49;35.90;99.90
5150;DHT22;2593;52.466;13.436;2023-09-08T09:56:15;36.30;99.90
5150;DHT22;2593;52.466;13.436;2023-09-08T09:58:41;35.90;99.90
5150;DHT22;2593;52.466;13.436;2023-09-08T10:01:07;35.50;99.90
5150;DHT22;2593;52.466;13.436;2023-09-08T10:03:33;34.80;99.90
5150;DHT22;2593;52.466;13.436;2023-09-08T10:05:59;34.30;99.90
5150;DHT22;2593;52.466;13.436;2023-09-08T10:08:25;34.20;99.90
5150;DHT22;2593;52.466;13.436;2023-09-08T10:10:50;35.20;99.90
5150;DHT22;2593;52.466;13.436;2023-09-08T10:13:28;35.00;99.90
5150;DHT22;2593;52.466;13.436;2023-09-08T10:15:56;34.50;99.90
5150;DHT22;2593;52.466;13.436;2023-09-08T10:18:22;35.00;99.90
5150;DHT22;2593;52.466;13.436;2023-09-08T10:20:49;36.50;99.90
5150;DHT22;2593;52.466;13.436;2023-09-08T10:25:47;36.20;99.90
5150;DHT22;2593;52.466;13.436;2023-09-08T10:28:20;36.00;99.90
5150;DHT22;2593;52.466;13.436;2023-09-08T10:30:46;34.90;99.90
5150;DHT22;2593;52.466;13.436;2023-09-08T10:33:12;33.10;99.90
5150;DHT22;2593;52.466;13.436;2023-09-08T10:35:38;31.70;99.90
5150;DHT22;2593;52.466;13.436;2023-09-08T10:40:51;30.40;99.90
5150;DHT22;2593;52.466;13.436;2023-09-08T10:43:17;30.40;99.90
5150;DHT22;2593;52.466;13.436;2023-09-08T10:45:43;29.90;99.90
5150;DHT22;2593;52.466;13.436;2023-09-08T10:48:09;29.90;99.90
5150;DHT22;2593;52.466;13.436;2023-09-08T10:50:38;30.00;99.90
5150;DHT22;2593;52.466;13.436;2023-09-08T10:53:14;29.50;99.90
5150;DHT22;2593;52.466;13.436;2023-09-08T10:55:48;29.40;99.90
5150;DHT22;2593;52.466;13.436;2023-09-08T10:58:32;29.10;99.90
5150;DHT22;2593;52.466;13.436;2023-09-08T11:00:59;28.90;99.90
5150;DHT22;2593;52.466;13.436;2023-09-08T11:03:47;28.50;99.90
5150;DHT22;2593;52.466;13.436;2023-09-08T11:06:15;28.20;99.90
5150;DHT22;2593;52.466;13.436;2023-09-08T11:08:41;28.00;99.90
5150;DHT22;2593;52.466;13.436;2023-09-08T11:11:09;27.90;99.90
5150;DHT22;2593;52.466;13.436;2023-09-08T11:13:35;27.90;99.90
5150;DHT22;2593;52.466;13.436;2023-09-08T11:16:01;28.30;99.90
5150;DHT22;2593;52.466;13.436;2023-09-08T11:18:30;28.30;99.90
5150;DHT22;2593;52.466;13.436;2023-09-08T11:20:56;28.30;99.90
5150;DHT22;2593;52.466;13.436;2023-09-08T11:23:22;28.20;99.90
5150;DHT22;2593;52.466;13.436;2023-09-08T11:25:51;28.20;99.90
5150;DHT22;2593;52.466;13.436;2023-09-08T11:28:17;28.30;99.90
5150;DHT22;2593;52.466;13.436;2023-09-08T11:30:42;28.40;99.90
5150;DHT22;2593;52.466;13.436;2023-09-08T11:33:15;28.10;99.90
5150;DHT22;2593;52.466;13.436;2023-09-08T11:35:41;28.00;99.90
5150;DHT22;2593;52.466;13.436;2023-09-08T11:38:11;28.00;99.90
5150;DHT22;2593;52.466;13.436;2023-09-08T11:40:37;27.90;99.90
5150;DHT22;2593;52.466;13.436;2023-09-08T11:43:03;28.00;99.90
5150;DHT22;2593;52.466;13.436;2023-09-08T11:45:29;27.90;99.90
5150;DHT22;2593;52.466;13.436;2023-09-08T11:47:55;28.00;99.90
5150;DHT22;2593;52.466;13.436;2023-09-08T11:50:21;28.00;99.90
5150;DHT22;2593;52.466;13.436;2023-09-08T11:52:51;27.90;99.90
5150;DHT22;2593;52.466;13.436;2023-09-08T11:55:18;27.90;99.90
5150;DHT22;2593;52.466;13.436;2023-09-08T11:57:44;27.90;99.90
5150;DHT22;2593;52.466;13.436;2023-09-08T12:00:10;27.90;99.90
5150;DHT22;2593;52.466;13.436;2023-09-08T12:02:41;28.00;99.90
5150;DHT22;2593;52.466;13.436;2023-09-08T12:05:11;28.00;99.90
5150;DHT22;2593;52.466;13.436;2023-09-08T12:07:37;28.00;99.90
5150;DHT22;2593;52.466;13.436;2023-09-08T12:10:07;28.10;99.90
5150;DHT22;2593;52.466;13.436;2023-09-08T12:12:34;28.00;99.90
5150;DHT22;2593;52.466;13.436;2023-09-08T12:14:59;27.90;99.90
5150;DHT22;2593;52.466;13.436;2023-09-08T12:17:25;28.00;99.90
5150;DHT22;2593;52.466;13.436;2023-09-08T12:19:51;28.00;99.90
5150;DHT22;2593;52.466;13.436;2023-09-08T12:22:17;28.00;99.90
5150;DHT22;2593;52.466;13.436;2023-09-08T12:27:16;27.60;99.90
5150;DHT22;2593;52.466;13.436;2023-09-08T12:29:58;27.60;99.90
5150;DHT22;2593;52.466;13.436;2023-09-08T12:32:24;27.70;99.90
5150;DHT22;2593;52.466;13.436;2023-09-08T12:34:51;27.80;99.90
5150;DHT22;2593;52.466;13.436;2023-09-08T12:37:23;27.90;99.90
5150;DHT22;2593;52.466;13.436;2023-09-08T12:39:49;27.90;99.90
5150;DHT22;2593;52.466;13.436;2023-09-08T12:42:14;27.90;99.90
5150;DHT22;2593;52.466;13.436;2023-09-08T12:44:40;27.90;99.90
5150;DHT22;2593;52.466;13.436;2023-09-08T12:47:06;27.80;99.90
5150;DHT22;2593;52.466;13.436;2023-09-08T12:49:32;27.90;99.90
5150;DHT22;2593;52.466;13.436;2023-09-08T12:51:57;27.80;99.90
5150;DHT22;2593;52.466;13.436;2023-09-08T12:54:23;27.80;99.90
5150;DHT22;2593;52.466;13.436;2023-09-08T12:56:48;27.80;99.90
5150;DHT22;2593;52.466;13.436;2023-09-08T12:59:14;27.80;99.90
5150;DHT22;2593;52.466;13.436;2023-09-08T13:01:39;27.80;99.90
5150;DHT22;2593;52.466;13.436;2023-09-08T13:04:05;27.90;99.90
5150;DHT22;2593;52.466;13.436;2023-09-08T13:06:30;27.80;99.90
5150;DHT22;2593;52.466;13.436;2023-09-08T13:08:58;27.90;99.90
5150;DHT22;2593;52.466;13.436;2023-09-08T13:11:24;28.00;99.90
5150;DHT22;2593;52.466;13.436;2023-09-08T13:13:49;27.90;99.90
5150;DHT22;2593;52.466;13.436;2023-09-08T13:16:15;28.00;99.90
5150;DHT22;2593;52.466;13.436;2023-09-08T13:18:40;27.90;99.90
5150;DHT22;2593;52.466;13.436;2023-09-08T13:21:06;27.90;99.90
5150;DHT22;2593;52.466;13.436;2023-09-08T13:23:32;27.90;99.90
5150;DHT22;2593;52.466;13.436;2023-09-08T13:25:57;28.20;99.90
5150;DHT22;2593;52.466;13.436;2023-09-08T13:28:23;28.00;99.90
5150;DHT22;2593;52.466;13.436;2023-09-08T13:30:48;28.00;99.90
5150;DHT22;2593;52.466;13.436;2023-09-08T13:33:14;28.00;99.90
5150;DHT22;2593;52.466;13.436;2023-09-08T13:35:39;27.90;99.90
5150;DHT22;2593;52.466;13.436;2023-09-08T13:38:05;28.00;99.90
5150;DHT22;2593;52.466;13.436;2023-09-08T13:40:31;28.00;99.90
5150;DHT22;2593;52.466;13.436;2023-09-08T13:42:56;28.00;99.90
5150;DHT22;2593;52.466;13.436;2023-09-08T13:45:22;28.00;99.90
5150;DHT22;2593;52.466;13.436;2023-09-08T13:47:47;28.00;99.90
5150;DHT22;2593;52.466;13.436;2023-09-08T13:50:13;28.00;99.90
5150;DHT22;2593;52.466;13.436;2023-09-08T13:52:38;28.10;99.90
5150;DHT22;2593;52.466;13.436;2023-09-08T13:55:07;28.10;99.90
5150;DHT22;2593;52.466;13.436;2023-09-08T13:57:32;28.00;99.90
5150;DHT22;2593;52.466;13.436;2023-09-08T13:59:58;28.00;99.90
5150;DHT22;2593;52.466;13.436;2023-09-08T14:02:23;28.00;99.90
5150;DHT22;2593;52.466;13.436;2023-09-08T14:04:49;27.90;99.90
5150;DHT22;2593;52.466;13.436;2023-09-08T14:07:14;27.90;99.90
5150;DHT22;2593;52.466;13.436;2023-09-08T14:09:40;27.90;99.90
5150;DHT22;2593;52.466;13.436;2023-09-08T14:12:06;28.00;99.90
5150;DHT22;2593;52.466;13.436;2023-09-08T14:14:31;27.90;99.90
5150;DHT22;2593;52.466;13.436;2023-09-08T14:16:57;28.00;99.90
5150;DHT22;2593;52.466;13.436;2023-09-08T14:19:22;28.10;99.90
5150;DHT22;2593;52.466;13.436;2023-09-08T14:21:48;28.00;99.90
5150;DHT22;2593;52.466;13.436;2023-09-08T14:24:13;28.00;99.90
5150;DHT22;2593;52.466;13.436;2023-09-08T14:26:39;28.00;99.90
5150;DHT22;2593;52.466;13.436;2023-09-08T14:29:04;27.90;99.90
5150;DHT22;2593;52.466;13.436;2023-09-08T14:31:30;27.90;99.90
5150;DHT22;2593;52.466;13.436;2023-09-08T14:33:55;27.90;99.90
5150;DHT22;2593;52.466;13.436;2023-09-08T14:36:21;28.00;99.90
5150;DHT22;2593;52.466;13.436;2023-09-08T14:38:46;28.00;99.90
5150;DHT22;2593;52.466;13.436;2023-09-08T14:41:12;28.00;99.90
5150;DHT22;2593;52.466;13.436;2023-09-08T14:43:38;28.00;99.90
5150;DHT22;2593;52.466;13.436;2023-09-08T14:46:03;28.10;99.90
5150;DHT22;2593;52.466;13.436;2023-09-08T14:48:29;27.90;99.90
5150;DHT22;2593;52.466;13.436;2023-09-08T14:50:57;27.90;99.90
5150;DHT22;2593;52.466;13.436;2023-09-08T14:53:23;27.90;99.90
5150;DHT22;2593;52.466;13.436;2023-09-08T14:55:48;28.00;99.90
5150;DHT22;2593;52.466;13.436;2023-09-08T14:58:14;28.00;99.90
5150;DHT22;2593;52.466;13.436;2023-09-08T15:00:40;28.00;99.90
5150;DHT22;2593;52.466;13.436;2023-09-08T15:03:06;27.90;99.90
5150;DHT22;2593;52.466;13.436;2023-09-08T15:05:32;28.00;99.90
5150;DHT22;2593;52.466;13.436;2023-09-08T15:07:58;28.00;99.90
5150;DHT22;2593;52.466;13.436;2023-09-08T15:10:23;27.90;99.90
5150;DHT22;2593;52.466;13.436;2023-09-08T15:12:49;28.00;99.90
5150;DHT22;2593;52.466;13.436;2023-09-08T15:15:14;28.00;99.90
5150;DHT22;2593;52.466;13.436;2023-09-08T15:17:41;28.00;99.90
5150;DHT22;2593;52.466;13.436;2023-09-08T15:20:07;28.00;99.90
5150;DHT22;2593;52.466;13.436;2023-09-08T15:22:34;27.90;99.90
5150;DHT22;2593;52.466;13.436;2023-09-08T15:25:00;27.90;99.90
5150;DHT22;2593;52.466;13.436;2023-09-08T15:27:25;28.00;99.90
5150;DHT22;2593;52.466;13.436;2023-09-08T15:29:52;27.90;99.90
5150;DHT22;2593;52.466;13.436;2023-09-08T15:32:17;27.90;99.90
5150;DHT22;2593;52.466;13.436;2023-09-08T15:34:43;27.80;99.90
5150;DHT22;2593;52.466;13.436;2023-09-08T15:37:12;27.80;99.90
5150;DHT22;2593;52.466;13.436;2023-09-08T15:39:38;27.80;99.90
5150;DHT22;2593;52.466;13.436;2023-09-08T15:42:03;27.80;99.90
5150;DHT22;2593;52.466;13.436;2023-09-08T15:44:29;27.70;99.90
5150;DHT22;2593;52.466;13.436;2023-09-08T15:46:54;27.70;99.90
5150;DHT22;2593;52.466;13.436;2023-09-08T15:49:20;27.70;99.90
5150;DHT22;2593;52.466;13.436;2023-09-08T15:51:45;27.60;99.90
5150;DHT22;2593;52.466;13.436;2023-09-08T15:54:11;27.60;99.90
5150;DHT22;2593;52.466;13.436;2023-09-08T15:56:37;27.50;99.90